Time;durP1;ratioP1;P1;durP2;ratioP2;P2;SDS_P1;SDS_P2;PMS_P1;PMS_P2;Temp;Humidity;BMP_temperature;BMP_pressure;BME280_temperature;BME280_humidity;BME280_pressure;Samples;Min_cycle;Max_cycle;Signal;HPM_P1;HPM_P2
2022/11/13 00:00:35;;;;;;;14.07;8.27;;;7.50;99.90;;;;;;5058105;28;20032;-76
2022/11/13 00:03:00;;;;;;;13.23;7.75;;;7.50;99.90;;;;;;5067831;28;20025;-75
2022/11/13 00:05:26;;;;;;;15.00;7.88;;;7.50;99.90;;;;;;5057384;28;20021;-76
2022/11/13 00:07:52;;;;;;;12.60;7.22;;;7.50;99.90;;;;;;5063634;28;20021;-77
2022/11/13 00:10:17;;;;;;;13.40;7.20;;;7.60;99.90;;;;;;5062341;28;20066;-77
2022/11/13 00:12:43;;;;;;;13.20;7.50;;;7.60;99.90;;;;;;5057690;28;20029;-77
2022/11/13 00:15:09;;;;;;;15.07;7.88;;;7.60;99.90;;;;;;5070702;28;20453;-75
2022/11/13 00:17:34;;;;;;;14.85;6.93;;;7.60;99.90;;;;;;5067000;28;20100;-75
2022/11/13 00:20:00;;;;;;;11.43;7.32;;;7.60;99.90;;;;;;5060165;28;20070;-74
2022/11/13 00:22:25;;;;;;;11.75;6.78;;;7.60;99.90;;;;;;5058716;28;20028;-75
2022/11/13 00:24:51;;;;;;;11.60;7.13;;;7.60;99.90;;;;;;5067684;28;20047;-75
2022/11/13 00:27:17;;;;;;;12.52;7.38;;;7.60;99.90;;;;;;5053761;28;20016;-74
2022/11/13 00:29:42;;;;;;;15.02;8.07;;;7.60;99.90;;;;;;5064384;28;20028;-77
2022/11/13 00:32:08;;;;;;;13.18;7.22;;;7.60;99.90;;;;;;5062649;28;20465;-77
2022/11/13 00:34:34;;;;;;;12.10;7.03;;;7.60;99.90;;;;;;5057399;28;20044;-76
2022/11/13 00:36:59;;;;;;;13.02;7.68;;;7.60;99.90;;;;;;5069810;28;20029;-76
2022/11/13 00:39:25;;;;;;;12.70;7.07;;;7.60;99.90;;;;;;5068807;28;20049;-76
2022/11/13 00:41:50;;;;;;;11.80;6.00;;;7.60;99.90;;;;;;5060242;28;20107;-74
2022/11/13 00:44:16;;;;;;;12.20;6.82;;;7.60;99.90;;;;;;5063643;28;20017;-73
2022/11/13 00:46:41;;;;;;;13.32;7.30;;;7.60;99.90;;;;;;5072316;28;20098;-73
2022/11/13 00:49:07;;;;;;;12.90;7.85;;;7.60;99.90;;;;;;5053560;28;20067;-74
2022/11/13 00:51:33;;;;;;;12.80;7.40;;;7.60;99.90;;;;;;5066543;28;20017;-74
2022/11/13 00:53:58;;;;;;;10.50;6.90;;;7.60;99.90;;;;;;5061329;28;20531;-74
2022/11/13 00:56:24;;;;;;;12.23;6.78;;;7.60;99.90;;;;;;5070504;28;20020;-73
2022/11/13 00:58:49;;;;;;;9.57;6.45;;;7.50;99.90;;;;;;5072151;28;20032;-74
2022/11/13 01:01:18;;;;;;;9.95;6.00;;;7.50;99.90;;;;;;5070653;28;20346;-74
2022/11/13 01:03:44;;;;;;;11.93;6.95;;;7.50;99.90;;;;;;5071208;28;20064;-74
2022/11/13 01:06:21;;;;;;;8.88;6.25;;;7.50;99.90;;;;;;5071401;28;20017;-75
2022/11/13 01:08:47;;;;;;;9.55;6.45;;;7.50;99.90;;;;;;5071843;28;20473;-74
2022/11/13 01:11:20;;;;;;;10.48;6.38;;;7.50;99.90;;;;;;5070203;28;20032;-74
2022/11/13 01:13:48;;;;;;;10.05;6.25;;;7.50;99.90;;;;;;5072269;28;20039;-74
2022/11/13 01:16:14;;;;;;;10.00;6.30;;;7.50;99.90;;;;;;5070440;28;20020;-73
2022/11/13 01:18:41;;;;;;;10.55;6.32;;;7.50;99.90;;;;;;5070920;28;20021;-73
2022/11/13 01:21:27;;;;;;;8.68;5.78;;;7.50;99.90;;;;;;5070434;28;20024;-73
2022/11/13 01:23:55;;;;;;;11.90;6.38;;;7.40;99.90;;;;;;5072092;28;20055;-73
2022/11/13 01:26:26;;;;;;;9.80;5.83;;;7.40;99.90;;;;;;5070199;28;20465;-74
2022/11/13 01:28:53;;;;;;;9.23;5.78;;;7.40;99.90;;;;;;5071945;28;20150;-73
2022/11/13 01:31:21;;;;;;;9.38;6.20;;;7.30;99.90;;;;;;5069677;28;20588;-73
2022/11/13 01:33:48;;;;;;;8.07;5.53;;;7.40;99.90;;;;;;5070852;28;20098;-73
2022/11/13 01:36:16;;;;;;;10.07;5.53;;;7.30;99.90;;;;;;5070252;28;20423;-74
2022/11/13 01:38:42;;;;;;;8.25;5.85;;;7.30;99.90;;;;;;5070835;28;20028;-74
2022/11/13 01:41:18;;;;;;;9.68;6.13;;;7.30;99.90;;;;;;5071485;28;20016;-74
2022/11/13 01:43:43;;;;;;;10.15;6.13;;;7.30;99.90;;;;;;5070864;28;20115;-74
2022/11/13 01:46:15;;;;;;;10.45;6.00;;;7.40;99.90;;;;;;5054553;28;20108;-73
2022/11/13 01:48:51;;;;;;;11.90;6.60;;;7.30;99.90;;;;;;5055480;28;20489;-72
2022/11/13 01:51:26;;;;;;;11.77;6.68;;;7.30;99.90;;;;;;5055021;28;20044;-73
2022/11/13 01:53:53;;;;;;;10.88;6.65;;;7.20;99.90;;;;;;5055036;28;20044;-74
2022/11/13 01:56:18;;;;;;;10.23;6.20;;;7.20;99.90;;;;;;5053862;28;20047;-74
2022/11/13 01:59:16;;;;;;;14.77;6.70;;;7.10;99.90;;;;;;5054331;28;20458;-73
2022/11/13 02:01:41;;;;;;;12.05;6.78;;;7.20;99.90;;;;;;5054938;28;20052;-73
2022/11/13 02:04:07;;;;;;;9.27;6.33;;;7.20;99.90;;;;;;5054959;28;20029;-73
2022/11/13 02:06:41;;;;;;;9.40;6.27;;;7.20;99.90;;;;;;5055390;28;20520;-72
2022/11/13 02:09:08;;;;;;;8.95;6.18;;;7.20;99.90;;;;;;5053101;28;20490;-72
2022/11/13 02:11:34;;;;;;;9.40;6.23;;;7.20;99.90;;;;;;5053958;28;20374;-73
2022/11/13 02:14:01;;;;;;;11.55;6.57;;;7.20;99.90;;;;;;5057647;28;20029;-75
2022/11/13 02:16:28;;;;;;;15.15;6.80;;;7.10;99.90;;;;;;5074057;28;20480;-74
2022/11/13 02:18:54;;;;;;;12.43;7.05;;;7.20;99.90;;;;;;5075205;28;20021;-74
2022/11/13 02:21:36;;;;;;;12.60;6.90;;;7.10;99.90;;;;;;5074405;28;20028;-73
2022/11/13 02:24:23;;;;;;;11.57;7.20;;;7.10;99.90;;;;;;5074625;28;20099;-73
2022/11/13 02:26:50;;;;;;;13.00;7.23;;;7.10;99.90;;;;;;5073855;28;20028;-76
2022/11/13 02:29:16;;;;;;;10.47;6.53;;;7.10;99.90;;;;;;5074508;28;20074;-77
2022/11/13 02:31:42;;;;;;;10.70;6.60;;;7.10;99.90;;;;;;5074576;28;20020;-74
2022/11/13 02:34:07;;;;;;;11.77;6.93;;;7.10;99.90;;;;;;5073059;28;20037;-75
2022/11/13 02:36:34;;;;;;;10.85;6.68;;;7.10;99.90;;;;;;5075291;28;20104;-74
2022/11/13 02:39:05;;;;;;;11.15;6.40;;;7.10;99.90;;;;;;5073418;28;20051;-74
2022/11/13 02:41:31;;;;;;;11.93;6.97;;;7.10;99.90;;;;;;5074919;28;20514;-74
2022/11/13 02:43:56;;;;;;;10.63;6.73;;;7.10;99.90;;;;;;5073485;28;20119;-75
2022/11/13 02:46:22;;;;;;;11.47;6.73;;;7.10;99.90;;;;;;5072993;28;20028;-76
2022/11/13 02:48:47;;;;;;;11.87;6.90;;;7.20;99.90;;;;;;5074841;28;20016;-74
2022/11/13 02:51:13;;;;;;;10.37;6.57;;;7.20;99.90;;;;;;5074015;28;20024;-75
2022/11/13 02:53:39;;;;;;;10.63;6.50;;;7.10;99.90;;;;;;5073602;28;20487;-74
2022/11/13 02:56:05;;;;;;;10.03;6.57;;;7.10;99.90;;;;;;5070961;28;21065;-75
2022/11/13 02:58:31;;;;;;;10.32;6.20;;;7.10;99.90;;;;;;5052864;28;20020;-74
2022/11/13 03:00:57;;;;;;;9.70;6.40;;;7.10;99.90;;;;;;5054295;28;20435;-74
2022/11/13 03:03:22;;;;;;;10.93;6.50;;;7.10;99.90;;;;;;5053577;28;20029;-74
2022/11/13 03:05:49;;;;;;;11.23;6.67;;;7.00;99.90;;;;;;5054023;28;20020;-75
2022/11/13 03:08:15;;;;;;;10.43;6.37;;;7.10;99.90;;;;;;5053513;28;20096;-74
2022/11/13 03:10:41;;;;;;;9.13;6.07;;;7.10;99.90;;;;;;5052561;28;20048;-74
2022/11/13 03:13:06;;;;;;;10.87;6.73;;;7.10;99.90;;;;;;5053413;28;20029;-75
2022/11/13 03:15:33;;;;;;;10.67;6.60;;;7.10;99.90;;;;;;5052521;28;20025;-75
2022/11/13 03:18:07;;;;;;;11.00;6.13;;;7.10;99.90;;;;;;5053924;28;20150;-75
2022/11/13 03:20:35;;;;;;;10.07;6.05;;;7.00;99.90;;;;;;5049908;28;20365;-74
2022/11/13 03:23:02;;;;;;;11.23;6.30;;;7.10;99.90;;;;;;5053759;28;20098;-74
2022/11/13 03:25:28;;;;;;;9.13;6.05;;;7.10;99.90;;;;;;5053783;28;20116;-73
2022/11/13 03:27:53;;;;;;;10.93;6.47;;;7.10;99.90;;;;;;5053525;28;20099;-74
2022/11/13 03:30:19;;;;;;;10.77;6.53;;;7.10;99.90;;;;;;5051784;28;20024;-74
2022/11/13 03:32:45;;;;;;;10.02;6.25;;;7.10;99.90;;;;;;5053256;28;20401;-74
2022/11/13 03:35:10;;;;;;;10.33;6.23;;;7.00;99.90;;;;;;5051762;28;20124;-74
2022/11/13 03:37:36;;;;;;;11.23;6.23;;;6.90;99.90;;;;;;5052273;28;20446;-74
2022/11/13 03:40:01;;;;;;;10.20;5.78;;;6.90;99.90;;;;;;5052120;28;20354;-74
2022/11/13 03:42:27;;;;;;;9.87;6.20;;;6.90;99.90;;;;;;5053126;28;20047;-74
2022/11/13 03:44:53;;;;;;;10.03;5.90;;;6.90;99.90;;;;;;5053818;28;20036;-74
2022/11/13 03:47:19;;;;;;;10.80;6.80;;;6.90;99.90;;;;;;5053047;28;20032;-74
2022/11/13 03:49:44;;;;;;;11.63;6.40;;;6.80;99.90;;;;;;5053694;28;20021;-74
2022/11/13 03:52:10;;;;;;;12.33;6.33;;;6.90;99.90;;;;;;5053103;28;20092;-74
2022/11/13 03:54:36;;;;;;;11.17;6.00;;;6.90;99.90;;;;;;5053529;28;20060;-74
2022/11/13 03:57:01;;;;;;;10.47;6.27;;;6.90;99.90;;;;;;5053253;28;20025;-74
2022/11/13 03:59:27;;;;;;;10.00;5.73;;;6.90;99.90;;;;;;5052888;28;20072;-73
2022/11/13 04:01:52;;;;;;;11.33;6.47;;;6.90;99.90;;;;;;5053393;28;20060;-74
2022/11/13 04:04:18;;;;;;;8.67;5.90;;;6.90;99.90;;;;;;5051671;28;20064;-74
2022/11/13 04:06:44;;;;;;;9.27;5.53;;;6.90;99.90;;;;;;5052151;28;20021;-74
2022/11/13 04:09:10;;;;;;;10.87;6.00;;;6.90;99.90;;;;;;5051746;28;20106;-74
2022/11/13 04:11:35;;;;;;;11.03;6.53;;;6.90;99.90;;;;;;5052351;28;20028;-74
2022/11/13 04:14:01;;;;;;;12.63;6.73;;;6.90;99.90;;;;;;5053201;28;20108;-74
2022/11/13 04:16:26;;;;;;;10.70;6.20;;;6.80;99.90;;;;;;5051265;28;20028;-74
2022/11/13 04:18:52;;;;;;;12.90;6.87;;;6.90;99.90;;;;;;5053163;28;20370;-74
2022/11/13 04:21:17;;;;;;;12.60;6.40;;;6.90;99.90;;;;;;5051356;28;20020;-74
2022/11/13 04:23:43;;;;;;;13.80;6.97;;;6.90;99.90;;;;;;5051779;28;20147;-74
2022/11/13 04:26:08;;;;;;;11.57;6.30;;;6.90;99.90;;;;;;5051277;28;20503;-74
2022/11/13 04:28:34;;;;;;;13.33;6.57;;;6.90;99.90;;;;;;5051762;28;20021;-74
2022/11/13 04:31:00;;;;;;;13.70;7.20;;;6.90;99.90;;;;;;5052621;28;20091;-75
2022/11/13 04:33:25;;;;;;;11.53;6.80;;;6.80;99.90;;;;;;5052289;28;20033;-74
2022/11/13 04:35:51;;;;;;;13.40;6.50;;;6.80;99.90;;;;;;5051405;28;20043;-74
2022/11/13 04:38:16;;;;;;;11.03;6.67;;;6.90;99.90;;;;;;5052258;28;20021;-75
2022/11/13 04:40:42;;;;;;;12.47;6.83;;;6.90;99.90;;;;;;5051591;28;20059;-74
2022/11/13 04:43:08;;;;;;;14.83;7.73;;;6.90;99.90;;;;;;5051945;28;20478;-76
2022/11/13 04:45:34;;;;;;;12.70;7.17;;;7.00;99.90;;;;;;5052841;28;20042;-76
2022/11/13 04:48:00;;;;;;;14.80;7.97;;;7.00;99.90;;;;;;5051378;28;20036;-75
2022/11/13 04:50:26;;;;;;;14.67;7.20;;;7.00;99.90;;;;;;5050831;28;20025;-76
2022/11/13 04:52:51;;;;;;;15.17;6.73;;;7.00;99.90;;;;;;5051332;28;20033;-75
2022/11/13 04:55:17;;;;;;;12.30;6.83;;;7.00;99.90;;;;;;5052168;28;20044;-76
2022/11/13 04:57:42;;;;;;;17.50;7.13;;;7.00;99.90;;;;;;5052408;28;20024;-75
2022/11/13 05:00:09;;;;;;;16.70;6.67;;;6.90;99.90;;;;;;5051002;28;20463;-76
2022/11/13 05:02:35;;;;;;;12.23;6.47;;;6.90;99.90;;;;;;5051482;28;20028;-75
2022/11/13 05:05:00;;;;;;;16.17;7.30;;;6.90;99.90;;;;;;5052600;28;20021;-75
2022/11/13 05:07:26;;;;;;;11.87;6.73;;;6.90;99.90;;;;;;5051949;28;20020;-75
2022/11/13 05:09:52;;;;;;;13.23;6.80;;;6.90;99.90;;;;;;5051095;28;20127;-74
2022/11/13 05:12:19;;;;;;;16.10;6.80;;;6.90;99.90;;;;;;5051877;28;20032;-74
2022/11/13 05:14:45;;;;;;;12.00;6.40;;;6.80;99.90;;;;;;5051045;28;20024;-74
2022/11/13 05:17:11;;;;;;;15.57;6.57;;;6.80;99.90;;;;;;5050601;28;20021;-75
2022/11/13 05:19:37;;;;;;;14.60;7.20;;;6.80;99.90;;;;;;5052392;28;20100;-74
2022/11/13 05:22:04;;;;;;;15.57;7.30;;;6.80;99.90;;;;;;5055640;28;20052;-74
2022/11/13 05:24:30;;;;;;;11.27;6.60;;;6.80;99.90;;;;;;5054571;28;20311;-74
2022/11/13 05:26:56;;;;;;;12.83;6.57;;;6.90;99.90;;;;;;5055180;28;20021;-74
2022/11/13 05:29:21;;;;;;;10.83;6.33;;;6.90;99.90;;;;;;5056088;28;20021;-74
2022/11/13 05:31:47;;;;;;;13.17;6.93;;;6.90;99.90;;;;;;5055065;28;20052;-74
2022/11/13 05:34:13;;;;;;;13.20;6.93;;;6.90;99.90;;;;;;5055697;28;20083;-75
2022/11/13 05:36:39;;;;;;;16.63;7.37;;;6.90;99.90;;;;;;5056226;28;20052;-74
2022/11/13 05:39:05;;;;;;;13.10;7.13;;;6.90;99.90;;;;;;5056535;28;20064;-74
2022/11/13 05:41:31;;;;;;;15.40;7.40;;;6.90;99.90;;;;;;5054286;28;20021;-74
2022/11/13 05:43:57;;;;;;;13.43;7.33;;;6.90;99.90;;;;;;5054911;28;20029;-74
2022/11/13 05:46:26;;;;;;;14.90;8.13;;;6.90;99.90;;;;;;5054236;28;20055;-74
2022/11/13 05:48:58;;;;;;;13.93;7.33;;;6.90;99.90;;;;;;5055989;28;20028;-74
2022/11/13 05:51:25;;;;;;;15.57;7.50;;;6.90;99.90;;;;;;5054222;28;20032;-73
2022/11/13 05:53:52;;;;;;;18.37;7.77;;;6.90;99.90;;;;;;5054521;28;20493;-74
2022/11/13 05:56:31;;;;;;;14.23;7.03;;;6.90;99.90;;;;;;5055240;28;20024;-74
2022/11/13 05:58:58;;;;;;;15.30;7.43;;;6.90;99.90;;;;;;5055856;28;20025;-74
2022/11/13 06:01:36;;;;;;;16.00;7.90;;;6.90;99.90;;;;;;5055432;28;20029;-74
2022/11/13 06:04:04;;;;;;;16.23;7.77;;;7.00;99.90;;;;;;5054140;28;20033;-74
2022/11/13 06:06:31;;;;;;;15.63;7.63;;;6.90;99.90;;;;;;5055033;28;20143;-74
2022/11/13 06:08:59;;;;;;;15.87;7.40;;;7.00;99.90;;;;;;5054166;28;20136;-74
2022/11/13 06:11:26;;;;;;;18.13;8.37;;;6.90;99.90;;;;;;5053886;28;20032;-74
2022/11/13 06:13:54;;;;;;;12.90;6.83;;;6.90;99.90;;;;;;5055225;28;20025;-74
2022/11/13 06:16:23;;;;;;;16.30;7.57;;;6.90;99.90;;;;;;5054853;28;20025;-74
2022/11/13 06:18:49;;;;;;;15.77;7.37;;;6.90;99.90;;;;;;5054182;28;20110;-74
2022/11/13 06:21:18;;;;;;;15.70;7.40;;;6.90;99.90;;;;;;5054575;28;20025;-74
2022/11/13 06:23:44;;;;;;;16.90;6.78;;;6.90;99.90;;;;;;5055344;28;20462;-74
2022/11/13 06:26:13;;;;;;;11.53;6.20;;;6.90;99.90;;;;;;5055009;28;20028;-74
2022/11/13 06:28:39;;;;;;;14.47;6.33;;;6.90;99.90;;;;;;5055311;28;20031;-74
2022/11/13 06:31:11;;;;;;;13.57;7.00;;;6.80;99.90;;;;;;5053093;28;20051;-73
2022/11/13 06:33:38;;;;;;;12.82;7.15;;;6.80;99.90;;;;;;5054505;28;20055;-74
2022/11/13 06:36:05;;;;;;;12.17;6.47;;;6.90;99.90;;;;;;5055176;28;20028;-74
2022/11/13 06:38:32;;;;;;;12.93;7.30;;;6.80;99.90;;;;;;5053142;28;20028;-74
2022/11/13 06:40:58;;;;;;;14.50;7.13;;;6.90;99.90;;;;;;5055349;28;20059;-74
2022/11/13 06:43:24;;;;;;;13.63;7.17;;;6.90;99.90;;;;;;5053434;28;20020;-74
2022/11/13 06:45:50;;;;;;;13.97;7.10;;;6.90;99.90;;;;;;5054630;28;20029;-74
2022/11/13 06:48:15;;;;;;;14.10;6.77;;;6.90;99.90;;;;;;5054024;28;20466;-75
2022/11/13 06:50:41;;;;;;;15.83;7.93;;;6.80;99.90;;;;;;5053807;28;20021;-74
2022/11/13 06:53:06;;;;;;;14.93;7.37;;;6.80;99.90;;;;;;5054926;28;20035;-75
2022/11/13 06:55:32;;;;;;;17.20;8.00;;;6.80;99.90;;;;;;5052988;28;20529;-74
2022/11/13 06:57:58;;;;;;;15.13;7.57;;;6.80;99.90;;;;;;5054773;28;20023;-74
2022/11/13 07:00:23;;;;;;;18.17;7.33;;;6.90;99.90;;;;;;5052807;28;20060;-75
2022/11/13 07:02:49;;;;;;;16.63;7.73;;;6.90;99.90;;;;;;5053442;28;20458;-75
2022/11/13 07:05:15;;;;;;;12.23;7.17;;;6.80;99.90;;;;;;5054294;28;20059;-74
2022/11/13 07:07:41;;;;;;;12.60;6.90;;;6.70;99.90;;;;;;5053301;28;20067;-74
2022/11/13 07:10:07;;;;;;;13.00;6.40;;;6.80;99.90;;;;;;5054100;28;20049;-75
2022/11/13 07:12:32;;;;;;;14.73;7.20;;;6.80;99.90;;;;;;5054203;28;20417;-75
2022/11/13 07:14:58;;;;;;;13.30;6.87;;;6.80;99.90;;;;;;5052998;28;20116;-74
2022/11/13 07:17:23;;;;;;;13.10;6.83;;;6.80;99.90;;;;;;5052500;28;20021;-75
2022/11/13 07:19:49;;;;;;;15.17;7.37;;;6.80;99.90;;;;;;5054351;28;20025;-74
2022/11/13 07:22:14;;;;;;;12.47;6.50;;;6.80;99.90;;;;;;5053011;28;20021;-74
2022/11/13 07:24:41;;;;;;;12.07;6.43;;;6.70;99.90;;;;;;5053728;28;20035;-74
2022/11/13 07:27:07;;;;;;;14.50;6.60;;;6.70;99.90;;;;;;5054443;28;20017;-74
2022/11/13 07:29:33;;;;;;;12.57;6.63;;;6.80;99.90;;;;;;5053532;28;20047;-74
2022/11/13 07:31:58;;;;;;;11.97;6.40;;;6.80;99.90;;;;;;5052926;28;20029;-74
2022/11/13 07:34:24;;;;;;;12.53;6.60;;;6.80;99.90;;;;;;5052198;28;20040;-74
2022/11/13 07:36:49;;;;;;;14.63;6.93;;;6.70;99.90;;;;;;5052797;28;20102;-74
2022/11/13 07:39:15;;;;;;;12.83;6.63;;;6.80;99.90;;;;;;5054284;28;20091;-74
2022/11/13 07:41:41;;;;;;;12.87;6.93;;;6.90;99.90;;;;;;5053374;28;20021;-74
2022/11/13 07:44:06;;;;;;;11.17;6.50;;;6.90;99.90;;;;;;5053385;28;20029;-74
2022/11/13 07:46:32;;;;;;;12.43;6.13;;;6.90;99.90;;;;;;5052009;28;20040;-74
2022/11/13 07:48:57;;;;;;;14.50;6.87;;;7.00;99.90;;;;;;5053767;28;20024;-74
2022/11/13 07:51:23;;;;;;;15.47;7.07;;;7.10;99.90;;;;;;5052060;28;20024;-74
2022/11/13 07:53:48;;;;;;;13.03;7.07;;;7.00;99.90;;;;;;5052450;28;20485;-74
2022/11/13 07:56:14;;;;;;;14.77;7.27;;;7.00;99.90;;;;;;5048853;28;20008;-74
2022/11/13 07:58:40;;;;;;;12.70;6.93;;;7.00;99.90;;;;;;5052866;28;20024;-74
2022/11/13 08:01:06;;;;;;;13.93;6.83;;;6.90;99.90;;;;;;5056812;28;20029;-74
2022/11/13 08:03:32;;;;;;;11.97;7.07;;;7.00;99.90;;;;;;5066028;28;20025;-74
2022/11/13 08:06:06;;;;;;;16.27;7.10;;;7.00;99.90;;;;;;5056575;28;20021;-74
2022/11/13 08:08:32;;;;;;;11.27;6.53;;;7.10;99.90;;;;;;5053792;28;20100;-74
2022/11/13 08:11:01;;;;;;;9.47;5.77;;;7.10;99.90;;;;;;5061552;28;20072;-74
2022/11/13 08:13:27;;;;;;;11.50;6.27;;;7.10;99.90;;;;;;5056859;28;20029;-74
2022/11/13 08:15:52;;;;;;;12.63;6.87;;;7.10;99.90;;;;;;5069306;28;20021;-74
2022/11/13 08:18:18;;;;;;;11.33;6.30;;;7.00;99.90;;;;;;5056066;28;20477;-73
2022/11/13 08:20:43;;;;;;;14.87;7.43;;;7.00;99.90;;;;;;5062701;28;20355;-74
2022/11/13 08:23:09;;;;;;;11.43;6.63;;;7.00;99.90;;;;;;5064745;28;20133;-73
2022/11/13 08:25:35;;;;;;;9.90;6.00;;;7.10;99.90;;;;;;5056694;28;20017;-74
2022/11/13 08:28:01;;;;;;;9.70;5.97;;;7.10;99.90;;;;;;5064709;28;20016;-77
2022/11/13 08:30:27;;;;;;;11.40;6.10;;;7.10;99.90;;;;;;5064617;28;20023;-75
2022/11/13 08:32:53;;;;;;;10.43;5.60;;;7.10;99.90;;;;;;5061003;28;20029;-74
2022/11/13 08:35:20;;;;;;;11.13;6.10;;;7.20;99.90;;;;;;5058324;28;20075;-75
2022/11/13 08:37:46;;;;;;;9.93;5.60;;;7.20;99.90;;;;;;5067487;28;20027;-75
2022/11/13 08:40:12;;;;;;;8.83;5.33;;;7.20;99.90;;;;;;5055609;28;20354;-75
2022/11/13 08:42:37;;;;;;;11.05;6.45;;;7.30;99.90;;;;;;5063302;28;20476;-75
2022/11/13 08:45:04;;;;;;;10.03;6.07;;;7.30;99.90;;;;;;5061764;28;20024;-75
2022/11/13 08:47:29;;;;;;;9.90;5.90;;;7.30;99.90;;;;;;5056000;28;20025;-74
2022/11/13 08:49:55;;;;;;;10.40;5.68;;;7.30;99.90;;;;;;5068842;28;20036;-75
2022/11/13 08:52:21;;;;;;;7.85;5.38;;;7.40;99.90;;;;;;5056125;28;20020;-75
2022/11/13 08:54:46;;;;;;;12.48;6.07;;;7.50;99.90;;;;;;5058975;28;20033;-75
2022/11/13 08:57:12;;;;;;;7.50;4.93;;;7.50;99.90;;;;;;5063245;28;20122;-74
2022/11/13 08:59:38;;;;;;;7.65;5.32;;;7.50;99.90;;;;;;5055292;28;20092;-75
2022/11/13 09:02:04;;;;;;;7.25;4.70;;;7.40;99.90;;;;;;5055743;28;20119;-75
2022/11/13 09:04:29;;;;;;;7.80;5.20;;;7.40;99.90;;;;;;5058854;28;20036;-75
2022/11/13 09:06:55;;;;;;;7.82;5.10;;;7.40;99.90;;;;;;5050692;28;20017;-74
2022/11/13 09:09:22;;;;;;;7.47;5.15;;;7.50;99.90;;;;;;5050377;28;20413;-75
2022/11/13 09:11:48;;;;;;;7.45;5.05;;;7.50;99.90;;;;;;5052101;28;20028;-75
2022/11/13 09:14:14;;;;;;;7.68;5.00;;;7.60;99.90;;;;;;5050703;28;20025;-74
2022/11/13 09:16:40;;;;;;;6.90;4.47;;;7.60;99.90;;;;;;5058687;28;20346;-74
2022/11/13 09:19:05;;;;;;;8.60;4.80;;;7.70;99.90;;;;;;5059610;28;20024;-75
2022/11/13 09:21:31;;;;;;;8.35;4.80;;;7.70;99.90;;;;;;5052602;28;20377;-74
2022/11/13 09:23:57;;;;;;;7.10;4.82;;;7.80;99.90;;;;;;5068847;28;20078;-74
2022/11/13 09:26:22;;;;;;;8.05;5.30;;;7.70;99.90;;;;;;5055683;28;20039;-74
2022/11/13 09:28:48;;;;;;;9.48;5.70;;;7.60;99.90;;;;;;5062736;28;20493;-74
2022/11/13 09:31:14;;;;;;;8.35;5.68;;;7.50;99.90;;;;;;5054119;28;20027;-75
2022/11/13 09:33:39;;;;;;;10.43;6.05;;;7.50;99.90;;;;;;5049865;28;20041;-74
2022/11/13 09:36:13;;;;;;;9.50;5.50;;;7.50;99.90;;;;;;5054469;28;20111;-75
2022/11/13 09:38:39;;;;;;;8.45;5.45;;;7.60;99.90;;;;;;5063810;28;20028;-74
2022/11/13 09:41:17;;;;;;;9.67;6.13;;;7.60;99.90;;;;;;5053963;28;20025;-74
2022/11/13 09:43:52;;;;;;;9.88;5.97;;;7.60;99.90;;;;;;5066451;28;20024;-74
2022/11/13 09:46:42;;;;;;;8.45;4.82;;;7.50;99.90;;;;;;5039889;28;20017;-74
2022/11/13 09:49:08;;;;;;;8.95;5.40;;;7.60;99.90;;;;;;5059148;28;20454;-74
2022/11/13 09:51:36;;;;;;;8.77;5.45;;;7.60;99.90;;;;;;5052756;28;20128;-75
2022/11/13 09:54:05;;;;;;;9.02;5.32;;;7.70;99.90;;;;;;5051226;28;20021;-75
2022/11/13 09:56:36;;;;;;;10.43;6.28;;;7.70;99.90;;;;;;5052108;28;20122;-74
2022/11/13 09:59:10;;;;;;;10.43;6.13;;;7.70;99.90;;;;;;5060342;28;20413;-74
2022/11/13 10:01:56;;;;;;;8.80;5.63;;;7.80;99.90;;;;;;5052111;28;20033;-75
2022/11/13 10:04:56;;;;;;;8.27;5.47;;;7.80;99.90;;;;;;5042431;28;20070;-75
2022/11/13 10:07:29;;;;;;;7.70;5.03;;;7.80;99.90;;;;;;5058970;28;20028;-75
2022/11/13 10:10:04;;;;;;;8.52;4.88;;;7.80;99.90;;;;;;5071050;28;20106;-75
2022/11/13 10:12:31;;;;;;;10.73;5.20;;;7.80;99.90;;;;;;5051357;28;20420;-75
2022/11/13 10:15:01;;;;;;;7.57;5.18;;;7.80;99.90;;;;;;5054800;28;20078;-75
2022/11/13 10:17:38;;;;;;;7.82;4.47;;;7.80;99.90;;;;;;5067013;28;20107;-75
2022/11/13 10:20:14;;;;;;;8.60;5.18;;;7.70;99.90;;;;;;5054171;28;20505;-75
2022/11/13 10:22:54;;;;;;;8.00;4.78;;;7.80;99.90;;;;;;5045458;28;20036;-75
2022/11/13 10:25:25;;;;;;;7.70;5.20;;;7.80;99.90;;;;;;5056068;28;20025;-75
2022/11/13 10:27:59;;;;;;;9.48;5.22;;;7.80;99.90;;;;;;5054519;28;20025;-75
2022/11/13 10:30:25;;;;;;;8.35;5.03;;;7.90;99.90;;;;;;5054983;28;20052;-75
2022/11/13 10:32:52;;;;;;;10.02;5.15;;;8.00;99.90;;;;;;5056567;28;20029;-76
2022/11/13 10:35:35;;;;;;;8.40;5.22;;;8.00;99.90;;;;;;5056871;28;20067;-75
2022/11/13 10:38:04;;;;;;;7.15;4.38;;;8.10;99.90;;;;;;5056370;28;20017;-73
2022/11/13 10:40:35;;;;;;;10.07;4.93;;;8.10;99.90;;;;;;5059859;28;20059;-73
2022/11/13 10:43:25;;;;;;;7.32;4.60;;;8.20;99.90;;;;;;5060209;28;20409;-73
2022/11/13 10:45:59;;;;;;;8.35;4.93;;;8.20;99.90;;;;;;5056121;28;20075;-75
2022/11/13 10:48:34;;;;;;;9.32;5.03;;;8.30;99.90;;;;;;5060210;28;20028;-74
2022/11/13 10:51:20;;;;;;;7.03;4.72;;;8.30;99.90;;;;;;5064226;28;20040;-78
2022/11/13 10:53:46;;;;;;;6.43;4.00;;;8.40;99.90;;;;;;5063986;28;20031;-78
2022/11/13 10:56:28;;;;;;;7.32;4.28;;;8.50;99.90;;;;;;5065131;28;20040;-79
2022/11/13 10:59:03;;;;;;;8.65;4.75;;;8.50;99.90;;;;;;5047547;28;20023;-79
2022/11/13 11:01:29;;;;;;;7.03;4.13;;;8.40;99.90;;;;;;5038702;28;20029;-76
2022/11/13 11:03:55;;;;;;;9.50;5.63;;;8.40;99.90;;;;;;5056592;28;20500;-79
2022/11/13 11:06:31;;;;;;;9.43;5.28;;;8.50;99.90;;;;;;5055914;28;20107;-79
2022/11/13 11:09:12;;;;;;;8.18;5.10;;;8.50;99.90;;;;;;5062413;28;20057;-79
2022/11/13 11:15:00;;;;;;;6.78;5.13;;;8.60;99.90;;;;;;5070526;28;20089;-78
2022/11/13 11:17:32;;;;;;;7.30;4.45;;;8.70;99.90;;;;;;5044022;28;20017;-77
2022/11/13 11:20:00;;;;;;;;;;;8.70;99.90;;;;;;5056429;28;20453;-77
2022/11/13 11:22:30;;;;;;;7.00;4.25;;;8.80;99.90;;;;;;5057183;28;19912;-77
2022/11/13 11:25:12;;;;;;;7.10;4.47;;;8.80;99.90;;;;;;5066440;28;20083;-77
2022/11/13 11:27:55;;;;;;;7.53;4.50;;;8.80;99.90;;;;;;5056785;28;20025;-77
2022/11/13 11:30:23;;;;;;;6.40;4.55;;;8.90;99.90;;;;;;5057030;28;20036;-77
2022/11/13 11:33:15;;;;;;;6.75;4.20;;;9.00;99.90;;;;;;5057156;28;20040;-77
2022/11/13 11:36:05;;;;;;;7.50;4.50;;;9.00;99.90;;;;;;5045161;28;20470;-77
2022/11/13 11:38:53;;;;;;;7.20;4.50;;;9.20;99.90;;;;;;5055175;28;20029;-78
2022/11/13 11:41:24;;;;;;;6.57;4.28;;;9.20;99.90;;;;;;5055723;28;20033;-78
2022/11/13 11:44:04;;;;;;;6.57;3.95;;;9.30;99.90;;;;;;5054668;28;20124;-78
2022/11/13 11:46:30;;;;;;;7.22;4.55;;;9.40;99.90;;;;;;5068024;28;20484;-75
2022/11/13 11:49:00;;;;;;;6.60;4.35;;;9.50;99.90;;;;;;5062734;28;20034;-77
2022/11/13 11:51:31;;;;;;;5.88;4.30;;;9.70;99.90;;;;;;5043750;28;20028;-76
2022/11/13 11:54:10;;;;;;;7.15;4.38;;;9.80;99.90;;;;;;5056403;28;20025;-77
2022/11/13 11:56:42;;;;;;;8.95;4.43;;;10.00;99.90;;;;;;5054602;28;20025;-77
2022/11/13 11:59:22;;;;;;;;;;;10.20;99.90;;;;;;5049169;28;20428;-77
2022/11/13 12:01:59;;;;;;;8.50;4.15;;;10.50;99.90;;;;;;5055005;28;19912;-77
2022/11/13 12:04:39;;;;;;;6.50;4.28;;;10.80;99.90;;;;;;5055080;28;20372;-79
2022/11/13 12:07:12;;;;;;;6.45;4.30;;;11.00;99.90;;;;;;5060043;28;20034;-78
2022/11/13 12:10:20;;;;;;;9.55;5.72;;;11.30;99.90;;;;;;5053298;28;20048;-80
2022/11/13 12:13:14;;;;;;;11.13;6.43;;;11.60;99.90;;;;;;5068462;28;20033;-79
2022/11/13 12:15:51;;;;;;;12.40;6.78;;;11.70;99.90;;;;;;5058204;28;20466;-78
2022/11/13 12:18:56;;;;;;;12.60;6.90;;;11.80;99.90;;;;;;5069297;28;20132;-79
2022/11/13 12:21:23;;;;;;;10.52;6.63;;;12.10;99.90;;;;;;5041926;28;20497;-77
2022/11/13 12:24:07;;;;;;;12.65;6.70;;;12.40;99.90;;;;;;5055600;28;20028;-79
2022/11/13 12:26:38;;;;;;;16.85;8.10;;;12.80;99.90;;;;;;5063951;28;20020;-78
2022/11/13 12:29:46;;;;;;;20.58;9.13;;;13.00;99.90;;;;;;5056816;28;20107;-80
2022/11/13 12:32:33;;;;;;;16.75;8.85;;;13.20;99.90;;;;;;5049346;28;20024;-78
2022/11/13 12:35:18;;;;;;;18.77;9.40;;;13.40;99.90;;;;;;5055647;28;20477;-78
2022/11/13 12:37:49;;;;;;;15.65;8.88;;;13.60;99.90;;;;;;5057716;28;20396;-80
2022/11/13 12:40:21;;;;;;;20.00;9.80;;;13.90;99.90;;;;;;5068915;28;20117;-80
2022/11/13 12:43:18;;;;;;;16.98;9.10;;;14.20;99.90;;;;;;5064668;28;20035;-79
2022/11/13 12:45:50;;;;;;;15.93;9.10;;;14.50;99.90;;;;;;5044883;28;20025;-80
2022/11/13 12:48:15;;;;;;;;;;;14.60;99.90;;;;;;5055925;28;20107;-79
2022/11/13 12:50:41;;;;;;;16.92;8.85;;;14.30;99.90;;;;;;5057079;28;19904;-78
2022/11/13 12:53:11;;;;;;;17.35;8.85;;;13.80;99.90;;;;;;5055191;28;20031;-78
2022/11/13 12:55:38;;;;;;;18.35;9.43;;;13.40;99.90;;;;;;5053094;28;20032;-78
2022/11/13 12:58:09;;;;;;;17.30;9.20;;;13.20;99.90;;;;;;5057273;28;20033;-75
2022/11/13 13:00:38;;;;;;;13.50;7.57;;;13.30;99.90;;;;;;5053218;28;20470;-75
2022/11/13 13:03:20;;;;;;;12.68;7.10;;;13.50;99.90;;;;;;5064022;28;20036;-75